Time;durP1;ratioP1;P1;durP2;ratioP2;P2;SDS_P1;SDS_P2;PMS_P1;PMS_P2;Temp;Humidity;BMP_temperature;BMP_pressure;BME280_temperature;BME280_humidity;BME280_pressure;Samples;Min_cycle;Max_cycle;Signal;HPM_P1;HPM_P2
2021/07/16 00:01:07;;;;;;;10.65;9.75;;;;;;;21.97;80.76;101277.72;5086672;28;20469;-80
2021/07/16 00:03:32;;;;;;;10.85;9.93;;;;;;;21.96;80.71;101276.09;5092869;28;20028;-80
2021/07/16 00:05:58;;;;;;;11.38;10.27;;;;;;;21.96;80.63;101276.09;5080436;28;20500;-80
2021/07/16 00:08:23;;;;;;;9.73;8.73;;;;;;;21.96;80.35;101284.41;5089824;28;20036;-80
2021/07/16 00:10:48;;;;;;;10.38;9.38;;;;;;;21.95;80.55;101280.84;5077993;28;20028;-79
2021/07/16 00:13:14;;;;;;;11.55;10.55;;;;;;;21.94;80.49;101284.78;5080127;28;20390;-81
2021/07/16 00:15:39;;;;;;;10.65;9.65;;;;;;;21.95;80.57;101283.59;5070283;28;20024;-81
2021/07/16 00:18:05;;;;;;;11.20;10.15;;;;;;;21.95;80.56;101285.56;5089616;28;20032;-80
2021/07/16 00:20:31;;;;;;;12.00;10.90;;;;;;;21.94;80.67;101289.53;5090578;28;20487;-81
2021/07/16 00:22:56;;;;;;;11.48;10.27;;;;;;;21.94;80.69;101286.75;5082068;28;20027;-81
2021/07/16 00:25:21;;;;;;;11.57;10.50;;;;;;;21.92;80.73;101287.06;5086678;28;20392;-81
2021/07/16 00:27:47;;;;;;;11.40;10.18;;;;;;;21.90;80.86;101286.59;5088357;28;20032;-80
2021/07/16 00:30:13;;;;;;;11.27;10.18;;;;;;;21.88;80.67;101291.69;5091728;28;20028;-80
2021/07/16 00:32:39;;;;;;;11.60;10.60;;;;;;;21.87;80.77;101290.03;5083749;28;20035;-81
2021/07/16 00:35:05;;;;;;;11.65;10.60;;;;;;;21.88;80.71;101288.06;5087192;28;21479;-80
2021/07/16 00:37:31;;;;;;;12.30;11.20;;;;;;;21.85;80.78;101295.13;5085811;28;20020;-80
2021/07/16 00:39:56;;;;;;;11.88;10.77;;;;;;;21.85;80.59;101291.53;5083138;28;20056;-80
2021/07/16 00:42:22;;;;;;;12.15;11.00;;;;;;;21.84;80.52;101299.06;5085608;28;20051;-80
2021/07/16 00:44:47;;;;;;;12.35;11.23;;;;;;;21.83;80.75;101299.41;5090845;28;20108;-80
2021/07/16 00:47:13;;;;;;;13.57;11.23;;;;;;;21.83;80.83;101307.72;5084623;28;20016;-81
2021/07/16 00:49:38;;;;;;;11.45;10.40;;;;;;;21.82;80.74;101304.13;5090617;28;20462;-80
2021/07/16 00:52:04;;;;;;;13.07;10.43;;;;;;;21.82;80.60;101301.34;5082988;28;20020;-80
2021/07/16 00:54:29;;;;;;;12.68;10.80;;;;;;;21.82;80.49;101303.31;5087557;28;20032;-80
2021/07/16 00:56:54;;;;;;;11.90;10.82;;;;;;;21.81;80.46;101307.25;5087918;28;20423;-81
2021/07/16 00:59:20;;;;;;;11.55;10.60;;;;;;;21.79;80.54;101302.03;5084837;28;20024;-80
2021/07/16 01:01:46;;;;;;;11.18;10.18;;;;;;;21.81;80.54;101296.16;5058926;28;20440;-80
2021/07/16 01:04:11;;;;;;;11.48;10.48;;;;;;;21.81;80.41;101307.25;5086059;28;20020;-81
2021/07/16 01:06:37;;;;;;;12.00;10.93;;;;;;;21.80;80.22;101305.59;5085187;28;20468;-81
2021/07/16 01:09:03;;;;;;;11.18;10.18;;;;;;;21.79;80.34;101313.13;5084067;28;20492;-81
2021/07/16 01:11:29;;;;;;;11.15;10.05;;;;;;;21.77;80.39;101315.44;5089832;28;20016;-81
2021/07/16 01:13:54;;;;;;;11.02;9.98;;;;;;;21.78;80.32;101313.47;5070661;28;20089;-81
2021/07/16 01:16:21;;;;;;;11.38;10.38;;;;;;;21.76;80.17;101315.78;5092414;28;20020;-80
2021/07/16 01:18:46;;;;;;;11.60;10.30;;;;;;;21.76;79.83;101311.03;5079172;28;20027;-80
2021/07/16 01:21:12;;;;;;;11.60;10.40;;;;;;;21.76;80.06;101313.00;5085734;28;20462;-80
2021/07/16 01:23:38;;;;;;;12.07;10.93;;;;;;;21.76;79.74;101310.22;5086967;28;20048;-80
2021/07/16 01:26:05;;;;;;;11.82;10.65;;;;;;;21.75;80.00;101314.16;5084202;28;20023;-80
2021/07/16 01:28:34;;;;;;;11.90;10.70;;;;;;;21.76;79.95;101313.00;5088567;28;20027;-80
2021/07/16 01:31:00;;;;;;;11.05;10.05;;;;;;;21.73;79.51;101318.06;5085735;28;20031;-81
2021/07/16 01:33:25;;;;;;;12.27;11.15;;;;;;;21.73;79.49;101314.47;5081357;28;20024;-80
2021/07/16 01:35:51;;;;;;;12.73;11.63;;;;;;;21.73;79.13;101322.81;5078563;28;20021;-80
2021/07/16 01:38:16;;;;;;;11.70;10.60;;;;;;;21.71;79.24;101317.56;5088602;28;20071;-80
2021/07/16 01:40:41;;;;;;;12.27;11.07;;;;;;;21.70;78.97;101318.75;5090240;28;20052;-80
2021/07/16 01:43:08;;;;;;;11.57;10.52;;;;;;;21.71;78.96;101325.09;5080592;28;20488;-80
2021/07/16 01:45:37;;;;;;;10.90;9.75;;;;;;;21.70;78.74;101326.25;5078950;28;20397;-81
2021/07/16 01:48:05;;;;;;;12.38;11.18;;;;;;;21.67;78.94;101322.19;5070153;28;20107;-81
2021/07/16 01:50:31;;;;;;;11.98;10.88;;;;;;;21.65;78.74;101321.72;5086393;28;20024;-81
2021/07/16 01:52:56;;;;;;;12.43;11.30;;;;;;;21.63;78.49;101324.00;5076686;28;20076;-81
2021/07/16 01:55:22;;;;;;;12.43;11.32;;;;;;;21.62;78.56;101330.72;5083927;28;20028;-80
2021/07/16 01:57:58;;;;;;;11.32;10.20;;;;;;;21.61;78.53;101336.59;5070391;28;20170;-80
2021/07/16 02:00:28;;;;;;;12.75;11.55;;;;;;;21.59;78.52;101334.16;5086149;28;20020;-80
2021/07/16 02:02:58;;;;;;;12.35;11.05;;;;;;;21.56;78.63;101328.47;5084073;28;20550;-80
2021/07/16 02:05:25;;;;;;;12.15;10.98;;;;;;;21.55;78.41;101332.38;5085712;28;20016;-81
2021/07/16 02:07:52;;;;;;;11.98;10.88;;;;;;;21.52;78.49;101325.53;5088906;28;20048;-80
2021/07/16 02:10:18;;;;;;;12.80;11.70;;;;;;;21.51;78.53;101326.69;5090331;28;20035;-80
2021/07/16 02:12:43;;;;;;;12.73;11.48;;;;;;;21.50;78.42;101338.94;5089545;28;20036;-80
2021/07/16 02:15:14;;;;;;;12.60;11.35;;;;;;;21.49;78.50;101345.63;5084324;28;20024;-80
2021/07/16 02:17:40;;;;;;;13.40;12.10;;;;;;;21.49;78.57;101340.09;5078359;28;20103;-80
2021/07/16 02:20:18;;;;;;;13.35;11.95;;;;;;;21.45;78.38;101339.94;5081388;28;20020;-79
2021/07/16 02:22:44;;;;;;;12.65;11.52;;;;;;;21.45;78.16;101350.22;5073619;28;20486;-80
2021/07/16 02:25:09;;;;;;;13.85;12.13;;;;;;;21.45;78.47;101347.47;5090076;28;20024;-80
2021/07/16 02:27:36;;;;;;;13.05;11.80;;;;;;;21.45;78.66;101350.22;5092965;28;20023;-79
2021/07/16 02:30:04;;;;;;;12.95;11.75;;;;;;;21.44;78.65;101348.59;5089284;28;20031;-80
2021/07/16 02:32:30;;;;;;;12.43;11.32;;;;;;;21.42;78.56;101345.34;5088918;28;20593;-80
2021/07/16 02:34:55;;;;;;;12.88;11.68;;;;;;;21.40;78.73;101354.00;5089535;28;20017;-80
2021/07/16 02:37:20;;;;;;;12.82;11.63;;;;;;;21.38;78.74;101349.94;5082535;28;20031;-80
2021/07/16 02:39:46;;;;;;;12.32;11.15;;;;;;;21.35;78.86;101347.78;5091969;28;20048;-79
2021/07/16 02:42:11;;;;;;;13.63;11.85;;;;;;;21.33;78.74;101348.13;5087584;28;20494;-79
2021/07/16 02:44:37;;;;;;;12.35;11.20;;;;;;;21.33;78.86;101350.09;5091843;28;20024;-80
2021/07/16 02:47:02;;;;;;;12.98;11.77;;;;;;;21.32;78.80;101340.16;5094274;28;20032;-80
2021/07/16 02:49:27;;;;;;;12.13;11.02;;;;;;;21.32;78.81;101345.69;5087197;28;20559;-79
2021/07/16 02:51:53;;;;;;;12.80;11.60;;;;;;;21.32;78.70;101340.16;5086115;28;20036;-79
2021/07/16 02:54:18;;;;;;;14.95;13.48;;;;;;;21.31;78.49;101338.50;5093487;28;20207;-80
2021/07/16 02:56:44;;;;;;;15.05;12.10;;;;;;;21.30;78.48;101343.25;5069616;28;20032;-80
2021/07/16 02:59:09;;;;;;;13.18;12.02;;;;;;;21.31;78.80;101349.59;5077999;28;20027;-80
2021/07/16 03:01:52;;;;;;;13.43;12.23;;;;;;;21.29;78.96;101347.16;5080569;28;20028;-80
2021/07/16 03:04:17;;;;;;;13.93;12.73;;;;;;;21.29;78.56;101349.94;5083274;28;20048;-80
2021/07/16 03:06:43;;;;;;;12.55;11.45;;;;;;;21.28;78.76;101346.38;5082685;28;20078;-81
2021/07/16 03:09:08;;;;;;;12.88;11.75;;;;;;;21.29;78.92;101347.97;5081588;28;20465;-80
2021/07/16 03:11:36;;;;;;;13.52;12.23;;;;;;;21.31;78.75;101355.13;5083522;28;20024;-80
2021/07/16 03:14:01;;;;;;;12.73;11.55;;;;;;;21.31;78.90;101355.13;5090001;28;20155;-79
2021/07/16 03:16:26;;;;;;;13.48;12.18;;;;;;;21.33;79.06;101361.19;5092452;28;20104;-80
2021/07/16 03:18:52;;;;;;;13.23;12.02;;;;;;;21.35;78.91;101361.66;5089138;28;20020;-79
2021/07/16 03:21:17;;;;;;;12.88;11.52;;;;;;;21.38;79.12;101366.56;5080853;28;20492;-79
2021/07/16 03:23:42;;;;;;;12.82;11.65;;;;;;;21.39;79.13;101362.66;5084959;28;20036;-79
2021/07/16 03:26:09;;;;;;;14.57;12.63;;;;;;;21.41;79.27;101371.44;5091972;28;20081;-80
2021/07/16 03:28:34;;;;;;;14.10;12.80;;;;;;;21.42;78.91;101362.00;5065728;28;20035;-80
2021/07/16 03:31:00;;;;;;;13.55;12.20;;;;;;;21.43;78.84;101366.41;5091678;28;20028;-80
2021/07/16 03:33:27;;;;;;;14.23;12.80;;;;;;;21.42;78.88;101362.00;5090922;28;20039;-79
2021/07/16 03:35:53;;;;;;;13.35;12.07;;;;;;;21.42;78.85;101368.34;5089166;28;20032;-79
2021/07/16 03:38:18;;;;;;;13.98;12.57;;;;;;;21.43;78.78;101363.63;5088988;28;20381;-79
2021/07/16 03:40:44;;;;;;;13.77;12.57;;;;;;;21.43;78.90;101369.16;5090179;28;20048;-79
2021/07/16 03:43:09;;;;;;;13.32;12.02;;;;;;;21.44;78.86;101370.78;5088696;28;20024;-79
2021/07/16 03:45:35;;;;;;;13.40;12.10;;;;;;;21.44;78.74;101366.06;5092548;28;20035;-79
2021/07/16 03:48:00;;;;;;;15.18;13.63;;;;;;;21.46;78.54;101362.94;5090812;28;20020;-79
2021/07/16 03:50:25;;;;;;;12.90;11.70;;;;;;;21.48;79.00;101372.56;5081835;28;20040;-79
2021/07/16 03:52:51;;;;;;;13.70;12.38;;;;;;;21.49;78.72;101378.91;5082112;28;20054;-80
2021/07/16 03:55:18;;;;;;;12.93;11.75;;;;;;;21.50;78.41;101375.03;5073756;28;20016;-79
2021/07/16 03:57:48;;;;;;;13.38;12.05;;;;;;;21.50;78.44;101369.47;5092429;28;20036;-79
2021/07/16 04:00:16;;;;;;;13.35;11.98;;;;;;;21.51;78.61;101365.53;5090284;28;20470;-79
2021/07/16 04:02:42;;;;;;;13.20;12.00;;;;;;;21.55;78.67;101372.03;5087425;28;20555;-80
2021/07/16 04:05:08;;;;;;;13.57;12.32;;;;;;;21.55;78.90;101366.47;5090211;28;20016;-79
2021/07/16 04:07:35;;;;;;;13.45;12.18;;;;;;;21.56;78.72;101364.53;5084242;28;20077;-78
2021/07/16 04:10:00;;;;;;;13.27;12.07;;;;;;;21.58;78.34;101367.78;5083775;28;20354;-79
2021/07/16 04:12:26;;;;;;;13.55;12.35;;;;;;;21.60;78.67;101369.06;5081867;28;20044;-79
2021/07/16 04:14:53;;;;;;;14.50;13.20;;;;;;;21.62;78.48;101371.53;5079081;28;20024;-80
2021/07/16 04:17:22;;;;;;;14.55;13.25;;;;;;;21.64;78.75;101374.78;5069903;28;20362;-79
2021/07/16 04:19:48;;;;;;;14.02;12.77;;;;;;;21.65;78.58;101379.97;5085959;28;20027;-79
2021/07/16 04:22:13;;;;;;;13.80;12.50;;;;;;;21.67;78.41;101374.91;5078777;28;20024;-80
2021/07/16 04:24:39;;;;;;;13.85;12.55;;;;;;;21.67;78.54;101374.91;5085620;28;20024;-80
2021/07/16 04:27:05;;;;;;;14.15;12.95;;;;;;;21.69;78.58;101378.19;5089318;28;20498;-79
2021/07/16 04:29:31;;;;;;;14.18;12.88;;;;;;;21.69;78.42;101372.63;5086057;28;20031;-79
2021/07/16 04:32:00;;;;;;;14.43;13.13;;;;;;;21.70;78.53;101371.47;5089834;28;20024;-79
2021/07/16 04:34:27;;;;;;;14.65;13.15;;;;;;;21.75;78.58;101372.44;5082216;28;20039;-79
2021/07/16 04:36:54;;;;;;;14.82;13.20;;;;;;;21.76;78.44;101382.38;5088921;28;20054;-79
2021/07/16 04:39:19;;;;;;;14.60;13.30;;;;;;;21.79;78.18;101382.50;5091663;28;20034;-80
2021/07/16 04:41:45;;;;;;;15.20;13.70;;;;;;;21.81;78.16;101379.41;5082015;28;20043;-79
2021/07/16 04:44:10;;;;;;;15.07;13.68;;;;;;;21.83;77.67;101377.13;5085320;28;20477;-79
2021/07/16 04:46:35;;;;;;;15.95;14.38;;;;;;;21.84;77.62;101381.53;5087921;28;20036;-79
2021/07/16 04:49:01;;;;;;;15.80;14.25;;;;;;;21.86;77.64;101382.81;5088548;28;20036;-79
2021/07/16 04:51:30;;;;;;;15.35;13.95;;;;;;;21.90;77.31;101380.16;5083134;28;20401;-79
2021/07/16 04:53:57;;;;;;;15.50;14.00;;;;;;;21.94;77.20;101383.91;5055017;28;20114;-80
2021/07/16 04:56:22;;;;;;;14.98;13.68;;;;;;;21.98;77.08;101389.59;5086581;28;20040;-79
2021/07/16 04:58:48;;;;;;;15.63;14.05;;;;;;;22.01;76.90;101395.28;5087694;28;20036;-80
2021/07/16 05:01:14;;;;;;;16.08;14.68;;;;;;;22.04;76.60;101389.03;5086642;28;20028;-78
2021/07/16 05:03:39;;;;;;;15.35;13.95;;;;;;;22.08;76.49;101392.78;5086953;28;20480;-80
2021/07/16 05:06:05;;;;;;;15.32;13.82;;;;;;;22.11;76.29;101394.88;5086875;28;20036;-79
2021/07/16 05:08:30;;;;;;;15.20;13.85;;;;;;;22.15;76.15;101395.84;5087365;28;20034;-79
2021/07/16 05:10:56;;;;;;;15.88;14.40;;;;;;;22.20;75.97;101394.03;5083019;28;20032;-81
2021/07/16 05:13:21;;;;;;;16.58;14.98;;;;;;;22.24;75.84;101393.03;5075621;28;20028;-81
2021/07/16 05:15:47;;;;;;;15.68;14.27;;;;;;;22.28;75.58;101393.16;5079725;28;20031;-81
2021/07/16 05:18:12;;;;;;;16.10;14.63;;;;;;;22.31;75.67;101400.81;5067175;28;20035;-81
2021/07/16 05:20:37;;;;;;;16.35;14.75;;;;;;;22.36;75.69;101398.66;5086965;28;20025;-80
2021/07/16 05:23:04;;;;;;;16.77;15.15;;;;;;;22.40;75.45;101398.81;5090584;28;20028;-78
2021/07/16 05:25:31;;;;;;;16.08;14.57;;;;;;;22.44;75.43;101402.50;5085017;28;20016;-77
2021/07/16 05:27:56;;;;;;;17.15;15.30;;;;;;;22.48;75.38;101414.59;5086513;28;20031;-77
2021/07/16 05:30:22;;;;;;;15.63;14.23;;;;;;;22.52;75.15;101411.94;5087727;28;20028;-79
2021/07/16 05:32:47;;;;;;;16.15;14.63;;;;;;;22.55;74.97;101414.84;5082421;28;20020;-78
2021/07/16 05:35:13;;;;;;;17.10;15.40;;;;;;;22.59;74.89;101415.00;5074646;28;20040;-79
2021/07/16 05:37:38;;;;;;;17.25;15.75;;;;;;;22.63;74.68;101412.34;5089082;28;20028;-77
2021/07/16 05:40:04;;;;;;;16.58;15.07;;;;;;;22.66;74.69;101411.66;5080311;28;20040;-77
2021/07/16 05:42:31;;;;;;;16.90;15.30;;;;;;;22.70;74.70;101410.63;5090599;28;20020;-76
2021/07/16 05:44:57;;;;;;;16.00;14.50;;;;;;;22.76;74.71;101420.38;5091627;28;20028;-77
2021/07/16 05:47:23;;;;;;;17.58;15.88;;;;;;;22.85;74.33;101427.81;5085962;28;20020;-76
2021/07/16 05:49:50;;;;;;;16.65;15.00;;;;;;;22.89;74.30;101424.03;5085191;28;20382;-76
2021/07/16 05:52:17;;;;;;;17.98;16.27;;;;;;;22.96;74.01;101427.06;5090489;28;20489;-76
2021/07/16 05:54:43;;;;;;;17.52;15.77;;;;;;;23.00;73.87;101425.25;5078978;28;20389;-76
2021/07/16 05:57:09;;;;;;;16.80;15.30;;;;;;;23.04;73.77;101420.63;5087172;28;20024;-76
2021/07/16 05:59:34;;;;;;;17.00;15.40;;;;;;;23.09;73.58;101427.94;5091513;28;20035;-76
2021/07/16 06:02:01;;;;;;;17.73;15.90;;;;;;;23.16;73.64;101432.94;5089025;28;20028;-76
2021/07/16 06:04:27;;;;;;;16.92;15.43;;;;;;;23.20;73.54;101431.91;5087532;28;20092;-76
2021/07/16 06:06:52;;;;;;;16.27;14.77;;;;;;;23.27;73.32;101440.50;5081657;28;20467;-77
2021/07/16 06:09:18;;;;;;;17.85;16.15;;;;;;;23.33;73.26;101438.31;5081956;28;20024;-77
2021/07/16 06:11:44;;;;;;;17.10;15.60;;;;;;;23.35;72.94;101441.53;5085196;28;20036;-77
2021/07/16 06:14:10;;;;;;;16.80;15.20;;;;;;;23.40;72.59;101449.69;5093811;28;20068;-77
2021/07/16 06:16:35;;;;;;;16.98;15.45;;;;;;;23.43;72.49;101443.41;5091154;28;20023;-77
2021/07/16 06:19:01;;;;;;;17.40;15.80;;;;;;;23.45;72.54;101449.44;5092258;28;20039;-77
2021/07/16 06:21:26;;;;;;;17.17;15.50;;;;;;;23.51;72.69;101450.03;5089050;28;20019;-77
2021/07/16 06:23:53;;;;;;;17.15;15.18;;;;;;;23.53;72.55;101447.72;5084194;28;20039;-77
2021/07/16 06:26:18;;;;;;;17.85;16.15;;;;;;;23.54;71.89;101443.78;5084768;28;20485;-76
2021/07/16 06:28:43;;;;;;;16.17;14.60;;;;;;;23.56;71.89;101447.03;5092734;28;20028;-76
2021/07/16 06:31:09;;;;;;;17.98;15.90;;;;;;;23.61;71.97;101446.81;5057257;28;20474;-77
2021/07/16 06:33:34;;;;;;;16.05;14.50;;;;;;;23.66;71.82;101451.34;5080545;28;20028;-77
2021/07/16 06:36:00;;;;;;;16.42;14.88;;;;;;;23.71;71.66;101453.94;5079670;28;20029;-77
2021/07/16 06:38:25;;;;;;;16.77;15.27;;;;;;;23.77;71.37;101462.88;5082480;28;20035;-77
2021/07/16 06:40:50;;;;;;;17.58;15.90;;;;;;;23.80;71.05;101457.41;5085591;28;20048;-78
2021/07/16 06:43:16;;;;;;;16.77;15.20;;;;;;;23.87;71.09;101460.44;5081021;28;20038;-79
2021/07/16 06:45:41;;;;;;;17.65;15.95;;;;;;;23.92;70.76;101473.28;5087294;28;20028;-79
2021/07/16 06:48:07;;;;;;;17.10;15.43;;;;;;;23.98;70.72;101463.56;5087787;28;20020;-79
2021/07/16 06:50:32;;;;;;;17.75;15.85;;;;;;;24.07;70.26;101466.22;5088008;28;20023;-79
2021/07/16 06:52:58;;;;;;;17.50;15.80;;;;;;;24.11;70.17;101473.53;5094612;28;20020;-79
2021/07/16 06:55:24;;;;;;;18.10;16.40;;;;;;;24.16;69.84;101469.69;5082850;28;20024;-79
2021/07/16 06:57:49;;;;;;;17.52;15.88;;;;;;;24.21;69.72;101472.25;5080373;28;20056;-79
2021/07/16 07:00:15;;;;;;;18.23;16.63;;;;;;;24.26;69.77;101474.78;5092788;28;20036;-78
2021/07/16 07:02:41;;;;;;;17.60;15.88;;;;;;;24.34;69.70;101475.84;5081962;28;20025;-77
2021/07/16 07:05:07;;;;;;;17.15;15.57;;;;;;;24.46;69.13;101483.38;5084004;28;20031;-80
2021/07/16 07:07:32;;;;;;;17.55;15.77;;;;;;;24.53;68.83;101487.22;5084236;28;20095;-79
2021/07/16 07:09:58;;;;;;;16.45;14.93;;;;;;;24.62;68.52;101489.84;5080806;28;20535;-80
2021/07/16 07:12:23;;;;;;;17.50;15.82;;;;;;;24.70;68.33;101483.31;5074995;28;20024;-79
2021/07/16 07:14:52;;;;;;;18.23;16.45;;;;;;;24.86;68.37;101497.34;5086360;28;20028;-80
2021/07/16 07:17:18;;;;;;;17.88;16.13;;;;;;;24.95;67.80;101494.38;5086738;28;20039;-80
2021/07/16 07:19:44;;;;;;;18.27;16.40;;;;;;;24.98;67.65;101493.66;5084540;28;21547;-79
2021/07/16 07:22:09;;;;;;;17.30;15.70;;;;;;;25.00;67.35;101494.13;5085130;28;20035;-79
2021/07/16 07:24:34;;;;;;;17.77;16.17;;;;;;;25.08;67.35;101495.97;5085130;28;20023;-78
2021/07/16 07:27:00;;;;;;;17.05;15.48;;;;;;;25.18;67.25;101501.06;5085696;28;20080;-78
2021/07/16 07:29:25;;;;;;;16.65;15.05;;;;;;;25.27;67.04;101506.47;5086377;28;20031;-78
2021/07/16 07:31:51;;;;;;;18.27;16.35;;;;;;;25.34;67.03;101503.88;5081386;28;20032;-75
2021/07/16 07:34:16;;;;;;;18.00;16.27;;;;;;;25.42;66.58;101511.25;5086328;28;20026;-74
2021/07/16 07:36:42;;;;;;;18.10;16.50;;;;;;;25.51;66.40;101511.13;5088967;28;20024;-74
2021/07/16 07:39:07;;;;;;;18.25;16.35;;;;;;;25.61;66.25;101516.16;5088656;28;20024;-74
2021/07/16 07:41:33;;;;;;;18.50;16.77;;;;;;;25.68;66.01;101519.16;5086610;28;20048;-75
2021/07/16 07:43:58;;;;;;;18.30;16.48;;;;;;;25.72;66.23;101518.41;5088322;28;20021;-74
2021/07/16 07:46:24;;;;;;;18.33;16.52;;;;;;;25.78;65.66;101522.56;5085527;28;20024;-74
2021/07/16 07:48:50;;;;;;;19.17;17.27;;;;;;;25.83;65.74;101527.88;5087270;28;20489;-74
2021/07/16 07:51:15;;;;;;;17.77;16.08;;;;;;;25.91;65.47;101529.72;5083174;28;20032;-74
2021/07/16 07:53:40;;;;;;;18.88;16.98;;;;;;;25.99;65.02;101531.50;5089919;28;20019;-75
2021/07/16 07:56:06;;;;;;;17.88;16.13;;;;;;;26.05;65.09;101532.84;5085422;28;20385;-75
2021/07/16 07:58:31;;;;;;;19.05;17.25;;;;;;;26.17;64.87;101539.53;5090085;28;20020;-75
2021/07/16 08:00:57;;;;;;;18.88;17.17;;;;;;;26.25;64.66;101532.94;5086445;28;20039;-75
2021/07/16 08:03:22;;;;;;;19.85;17.88;;;;;;;26.31;64.96;101537.88;5083597;28;20027;-75
2021/07/16 08:05:48;;;;;;;17.83;16.23;;;;;;;26.37;64.33;101546.00;5073288;28;20522;-76
2021/07/16 08:08:13;;;;;;;17.02;15.48;;;;;;;26.43;64.17;101542.53;5086601;28;20059;-75
2021/07/16 08:10:38;;;;;;;18.02;16.42;;;;;;;26.50;64.02;101545.50;5088408;28;20029;-75
2021/07/16 08:13:04;;;;;;;18.90;17.15;;;;;;;26.60;64.02;101543.34;5084959;28;20024;-80
2021/07/16 08:15:29;;;;;;;19.33;17.63;;;;;;;26.68;64.09;101547.91;5090100;28;20095;-83
2021/07/16 08:17:55;;;;;;;18.42;16.65;;;;;;;26.75;63.57;101551.69;5084151;28;20473;-75
2021/07/16 08:20:20;;;;;;;17.60;15.90;;;;;;;26.82;63.79;101547.41;5079741;28;20488;-75
2021/07/16 08:22:46;;;;;;;17.83;16.33;;;;;;;26.83;63.90;101549.88;5079876;28;20024;-76
2021/07/16 08:25:11;;;;;;;18.48;16.77;;;;;;;26.82;63.58;101559.44;5078445;28;20366;-72
2021/07/16 08:27:37;;;;;;;17.52;15.93;;;;;;;26.74;63.84;101561.28;5078459;28;20029;-73
2021/07/16 08:30:03;;;;;;;17.33;15.82;;;;;;;26.78;63.91;101555.75;5087512;28;20504;-75
2021/07/16 08:32:29;;;;;;;18.05;16.42;;;;;;;26.89;63.73;101561.59;5089602;28;20028;-71
2021/07/16 08:34:54;;;;;;;19.13;17.08;;;;;;;26.98;63.40;101559.38;5083468;28;20043;-72
2021/07/16 08:37:20;;;;;;;18.73;16.92;;;;;;;27.09;63.27;101559.59;5081395;28;20017;-74
2021/07/16 08:39:45;;;;;;;17.45;16.05;;;;;;;27.15;62.59;101558.13;5084189;28;20028;-72
2021/07/16 08:42:10;;;;;;;18.80;17.02;;;;;;;27.21;62.59;101559.47;5086029;28;20024;-75
2021/07/16 08:44:36;;;;;;;18.35;16.73;;;;;;;27.25;62.30;101562.34;5089232;28;20073;-74
2021/07/16 08:47:02;;;;;;;18.23;16.73;;;;;;;27.24;62.12;101558.75;5085340;28;20024;-74
2021/07/16 08:49:27;;;;;;;18.67;16.75;;;;;;;27.28;62.15;101556.81;5087869;28;20032;-78
2021/07/16 08:51:52;;;;;;;20.15;18.27;;;;;;;27.37;62.01;101551.81;5067474;28;20473;-78
2021/07/16 08:54:19;;;;;;;19.65;17.65;;;;;;;27.48;61.65;101556.81;5068084;28;20024;-79
2021/07/16 08:56:45;;;;;;;19.13;17.33;;;;;;;27.58;61.50;101557.00;5087304;28;20031;-77
2021/07/16 08:59:10;;;;;;;18.27;16.67;;;;;;;27.63;60.86;101565.09;5082257;28;20042;-78
2021/07/16 09:01:36;;;;;;;18.75;17.05;;;;;;;27.59;60.80;101563.41;5067101;28;20358;-77
2021/07/16 09:04:03;;;;;;;19.02;17.27;;;;;;;27.54;60.98;101563.72;5081497;28;20024;-78
2021/07/16 09:06:56;;;;;;;18.98;17.27;;;;;;;27.56;60.96;101572.56;5086442;28;20056;-78
2021/07/16 09:09:26;;;;;;;19.25;17.45;;;;;;;27.49;60.89;101575.22;5088153;28;20110;-77
2021/07/16 09:11:55;;;;;;;19.45;17.67;;;;;;;27.45;60.83;101570.38;5081948;28;20031;-78
2021/07/16 09:14:28;;;;;;;20.25;18.38;;;;;;;27.53;60.61;101573.28;5080059;28;20030;-79
2021/07/16 09:17:03;;;;;;;19.52;17.63;;;;;;;27.54;60.60;101569.31;5077787;28;20085;-77
2021/07/16 09:19:30;;;;;;;18.42;16.85;;;;;;;27.61;60.56;101563.84;5082983;28;20024;-76
2021/07/16 09:22:12;;;;;;;18.90;17.30;;;;;;;27.73;60.96;101571.28;5082389;28;20522;-77
2021/07/16 09:24:43;;;;;;;17.83;16.30;;;;;;;27.86;61.07;101564.34;5085308;28;20180;-77
2021/07/16 09:27:28;;;;;;;18.33;16.73;;;;;;;27.98;60.60;101571.75;5086114;28;20103;-78
2021/07/16 09:29:53;;;;;;;18.98;17.27;;;;;;;28.07;60.21;101580.69;5085521;28;20026;-80
2021/07/16 09:32:18;;;;;;;19.00;17.40;;;;;;;28.14;59.93;101569.63;5089046;28;20032;-82
2021/07/16 09:34:50;;;;;;;18.08;16.38;;;;;;;28.22;59.42;101574.16;5084788;28;20033;-79
2021/07/16 09:37:16;;;;;;;;;;;;;;;28.32;59.75;101572.72;5089764;28;20100;-79
2021/07/16 09:39:41;;;;;;;18.00;16.43;;;;;;;28.47;59.38;101570.94;5087446;28;19955;-79
2021/07/16 09:42:06;;;;;;;18.75;17.10;;;;;;;28.59;59.02;101575.53;5068555;28;20283;-79
2021/07/16 09:44:38;;;;;;;19.10;17.40;;;;;;;28.59;58.67;101573.53;5073192;28;20045;-78
2021/07/16 09:47:17;;;;;;;17.40;15.90;;;;;;;28.51;58.77;101571.81;5091939;28;20016;-78
2021/07/16 09:50:06;;;;;;;18.17;16.48;;;;;;;28.57;59.09;101577.94;5087197;28;20539;-77
2021/07/16 09:52:31;;;;;;;18.40;16.70;;;;;;;28.62;58.75;101575.59;5088064;28;20028;-79
2021/07/16 09:55:18;;;;;;;17.92;16.23;;;;;;;28.68;58.73;101576.88;5085808;28;20085;-78
2021/07/16 09:57:49;;;;;;;18.00;16.50;;;;;;;28.73;58.98;101576.56;5087321;28;20153;-77
2021/07/16 10:00:18;;;;;;;19.73;17.98;;;;;;;28.81;58.49;101585.88;5089047;28;20039;-77
2021/07/16 10:02:45;;;;;;;18.48;16.75;;;;;;;28.63;58.33;101577.22;5082561;28;20373;-76
2021/07/16 10:05:11;;;;;;;19.23;17.63;;;;;;;28.48;58.72;101583.78;5090874;28;20026;-75
2021/07/16 10:07:36;;;;;;;18.02;16.33;;;;;;;28.50;59.44;101587.03;5088628;28;20023;-76
2021/07/16 10:10:02;;;;;;;16.92;15.43;;;;;;;28.57;59.79;101575.91;5080491;28;20032;-75
2021/07/16 10:12:28;;;;;;;19.25;17.63;;;;;;;28.71;58.95;101586.53;5104675;28;20441;-75
2021/07/16 10:14:54;;;;;;;19.42;17.65;;;;;;;28.85;58.84;101580.31;5059367;28;20039;-75
2021/07/16 10:17:19;;;;;;;17.35;15.68;;;;;;;28.94;58.78;101586.44;5086174;28;20043;-76
2021/07/16 10:19:45;;;;;;;19.08;17.17;;;;;;;28.95;58.51;101590.88;5084489;28;20032;-75
2021/07/16 10:22:10;;;;;;;17.67;16.17;;;;;;;28.91;58.13;101585.22;5070046;28;20031;-75
2021/07/16 10:24:37;;;;;;;18.77;17.08;;;;;;;28.85;58.50;101586.72;5082457;28;20546;-76
2021/07/16 10:27:04;;;;;;;17.80;16.27;;;;;;;28.91;58.55;101592.81;5046329;28;20032;-81
2021/07/16 10:29:39;;;;;;;18.30;16.67;;;;;;;28.95;58.49;101588.06;5080961;28;20081;-80
2021/07/16 10:32:06;;;;;;;17.00;15.55;;;;;;;29.07;58.19;101584.25;5089018;28;20035;-80
2021/07/16 10:34:33;;;;;;;18.30;16.60;;;;;;;29.24;57.78;101585.66;5087143;28;20023;-77
2021/07/16 10:37:17;;;;;;;18.08;16.48;;;;;;;29.41;57.15;101587.84;5082200;28;20062;-76
2021/07/16 10:39:49;;;;;;;17.50;15.93;;;;;;;29.54;56.36;101599.63;5061434;28;20393;-77
2021/07/16 10:42:27;;;;;;;17.42;16.02;;;;;;;29.61;56.25;101594.09;5085893;28;20077;-77
2021/07/16 10:44:53;;;;;;;17.38;15.65;;;;;;;29.49;56.36;101606.41;5087430;28;20028;-77
2021/07/16 10:47:44;;;;;;;18.05;16.42;;;;;;;29.52;56.39;101602.84;5086918;28;20027;-77
2021/07/16 10:50:12;;;;;;;17.30;15.90;;;;;;;29.62;56.52;101612.56;5086910;28;20354;-77
2021/07/16 10:52:50;;;;;;;16.90;15.40;;;;;;;29.58;56.41;101611.72;5086656;28;20055;-79
2021/07/16 10:55:28;;;;;;;17.63;16.00;;;;;;;29.57;56.18;101605.28;5080928;28;20697;-80
2021/07/16 10:57:54;;;;;;;17.27;15.77;;;;;;;29.50;56.08;101608.03;5090010;28;20039;-78
2021/07/16 11:00:39;;;;;;;17.63;16.02;;;;;;;29.41;57.22;101611.16;5074886;28;20024;-79
2021/07/16 11:03:12;;;;;;;17.88;16.23;;;;;;;29.39;57.25;101604.28;5076182;28;20485;-79
2021/07/16 11:05:42;;;;;;;18.00;16.30;;;;;;;29.31;57.72;101605.41;5084319;28;20023;-80
2021/07/16 11:08:26;;;;;;;17.77;16.25;;;;;;;29.20;57.73;101602.47;5093404;28;20030;-80